createdAt,value
2017-08-16T00:02:21.527Z,6.80
2017-08-16T00:04:49.113Z,6.93
2017-08-16T00:07:16.714Z,7.50
2017-08-16T00:09:45.080Z,5.77
2017-08-16T00:12:13.486Z,6.40
2017-08-16T00:14:41.145Z,5.30
2017-08-16T00:17:08.778Z,5.83
2017-08-16T00:19:36.402Z,5.40
2017-08-16T00:22:03.990Z,4.80
2017-08-16T00:24:31.901Z,5.83
2017-08-16T00:27:00.382Z,5.47
2017-08-16T00:29:28.785Z,4.80
2017-08-16T00:31:57.164Z,8.50
2017-08-16T00:34:24.758Z,5.50
2017-08-16T00:36:52.395Z,4.77
2017-08-16T00:39:20.038Z,6.40
2017-08-16T00:41:47.652Z,5.27
2017-08-16T00:44:16.264Z,6.73
2017-08-16T00:46:43.887Z,4.13
2017-08-16T00:49:13.235Z,4.87
2017-08-16T00:51:40.872Z,6.67
2017-08-16T00:54:08.479Z,4.83
2017-08-16T00:56:36.132Z,4.87
2017-08-16T00:59:03.750Z,5.00
2017-08-16T01:01:31.432Z,4.53
2017-08-16T01:03:59.038Z,4.90
2017-08-16T01:06:26.702Z,6.40
2017-08-16T01:08:54.292Z,4.30
2017-08-16T01:11:21.888Z,5.20
2017-08-16T01:13:49.495Z,5.57
2017-08-16T01:16:17.086Z,4.43
2017-08-16T01:18:44.658Z,5.20
2017-08-16T01:21:12.266Z,4.17
2017-08-16T01:23:39.878Z,5.53
2017-08-16T01:26:07.469Z,4.33
2017-08-16T01:28:35.100Z,4.47
2017-08-16T01:31:02.679Z,3.60
2017-08-16T01:33:30.371Z,4.00
2017-08-16T01:35:58.751Z,5.50
2017-08-16T01:38:27.119Z,4.30
2017-08-16T01:40:54.708Z,4.63
2017-08-16T01:43:23.087Z,8.47
2017-08-16T01:45:51.441Z,4.43
2017-08-16T01:48:20.137Z,9.23
2017-08-16T01:50:47.750Z,4.10
2017-08-16T01:53:15.341Z,3.80
2017-08-16T01:55:43.337Z,3.10
2017-08-16T01:58:11.049Z,4.70
2017-08-16T02:00:38.629Z,4.63
2017-08-16T02:03:07.235Z,3.33
2017-08-16T02:05:34.848Z,4.73
2017-08-16T02:08:03.225Z,4.93
2017-08-16T02:10:31.889Z,3.70
2017-08-16T02:12:59.498Z,3.63
2017-08-16T02:15:27.102Z,6.03
2017-08-16T02:17:54.704Z,2.67
2017-08-16T02:20:22.318Z,3.07
2017-08-16T02:22:50.411Z,6.13
2017-08-16T02:25:18.019Z,4.73
2017-08-16T02:27:45.652Z,3.27
2017-08-16T02:30:13.251Z,3.00
2017-08-16T02:32:41.111Z,4.10
2017-08-16T02:35:09.065Z,6.47
2017-08-16T02:37:36.645Z,6.00
2017-08-16T02:40:04.297Z,2.90
2017-08-16T02:42:32.274Z,3.73
2017-08-16T02:44:59.879Z,3.23
2017-08-16T02:47:28.224Z,3.10
2017-08-16T02:49:56.182Z,3.77
2017-08-16T02:52:23.816Z,3.40
2017-08-16T02:54:51.460Z,3.00
2017-08-16T02:57:19.136Z,3.53
2017-08-16T02:59:46.751Z,3.50
2017-08-16T03:02:14.567Z,4.10
2017-08-16T03:04:42.220Z,3.40
2017-08-16T03:07:09.860Z,4.60
2017-08-16T03:09:37.487Z,3.67
2017-08-16T03:12:05.107Z,3.80
2017-08-16T03:14:32.734Z,3.67
2017-08-16T03:17:00.399Z,4.37
2017-08-16T03:19:28.139Z,4.13
2017-08-16T03:21:55.782Z,4.37
2017-08-16T03:24:23.423Z,4.30
2017-08-16T03:26:51.088Z,4.20
2017-08-16T03:29:18.798Z,3.20
2017-08-16T03:31:47.227Z,3.80
2017-08-16T03:34:14.862Z,3.53
2017-08-16T03:36:43.539Z,3.40
2017-08-16T03:39:11.914Z,3.57
2017-08-16T03:41:40.306Z,3.50
2017-08-16T03:44:08.701Z,4.40
2017-08-16T03:46:37.056Z,2.87
2017-08-16T03:49:04.997Z,2.73
2017-08-16T03:51:32.651Z,2.80
2017-08-16T03:54:00.262Z,3.50
2017-08-16T03:56:27.858Z,3.90
2017-08-16T03:58:55.502Z,3.10
2017-08-16T04:01:23.200Z,4.60
2017-08-16T04:03:50.778Z,4.00
2017-08-16T04:06:18.423Z,3.50
2017-08-16T04:08:46.053Z,3.70
2017-08-16T04:11:13.673Z,4.87
2017-08-16T04:13:41.309Z,4.60
2017-08-16T04:16:09.711Z,5.30
2017-08-16T04:18:37.330Z,3.90
2017-08-16T04:21:06.202Z,4.77
2017-08-16T04:23:33.831Z,4.70
2017-08-16T04:26:01.515Z,4.07
2017-08-16T04:28:29.148Z,3.93
2017-08-16T04:30:58.000Z,4.07
2017-08-16T04:33:25.668Z,3.83
2017-08-16T04:35:53.299Z,5.20
2017-08-16T04:38:21.029Z,4.00
2017-08-16T04:40:48.665Z,4.47
2017-08-16T04:43:16.259Z,6.90
2017-08-16T04:45:43.888Z,5.53
2017-08-16T04:48:11.534Z,5.87
2017-08-16T04:50:39.108Z,6.53
2017-08-16T04:53:06.713Z,5.10
2017-08-16T04:55:34.306Z,4.90
2017-08-16T04:58:02.723Z,6.60
2017-08-16T05:00:30.406Z,5.70
2017-08-16T05:02:58.001Z,4.33
2017-08-16T05:05:25.714Z,4.90
2017-08-16T05:07:53.387Z,4.90
2017-08-16T05:10:22.002Z,4.83
2017-08-16T05:12:49.614Z,4.80
2017-08-16T05:15:18.351Z,4.40
2017-08-16T05:17:46.014Z,4.63
2017-08-16T05:20:13.649Z,5.00
2017-08-16T05:22:42.189Z,4.60
2017-08-16T05:25:09.845Z,5.00
2017-08-16T05:27:37.480Z,6.27
2017-08-16T05:30:05.270Z,4.63
2017-08-16T05:32:32.986Z,4.80
2017-08-16T05:35:01.386Z,5.27
2017-08-16T05:37:29.752Z,5.40
2017-08-16T05:39:57.379Z,6.17
2017-08-16T05:42:24.958Z,4.90
2017-08-16T05:44:52.583Z,4.80
2017-08-16T05:47:20.221Z,6.00
2017-08-16T05:49:48.953Z,5.47
2017-08-16T05:52:16.556Z,5.73
2017-08-16T05:54:44.148Z,5.80
2017-08-16T05:57:12.520Z,6.07
2017-08-16T05:59:40.119Z,6.73
2017-08-16T06:02:07.754Z,5.60
2017-08-16T06:04:35.379Z,4.90
2017-08-16T06:07:03.025Z,4.97
2017-08-16T06:09:31.009Z,5.23
2017-08-16T06:11:58.635Z,4.90
2017-08-16T06:14:27.029Z,5.90
2017-08-16T06:16:54.669Z,5.67
2017-08-16T06:19:22.345Z,5.10
2017-08-16T06:21:50.711Z,4.60
2017-08-16T06:24:18.351Z,5.00
2017-08-16T06:26:45.948Z,5.13
2017-08-16T06:29:14.311Z,4.13
2017-08-16T06:31:41.938Z,4.90
2017-08-16T06:34:09.508Z,6.50
2017-08-16T06:36:37.122Z,4.60
2017-08-16T06:39:04.758Z,4.37
2017-08-16T06:41:32.362Z,3.80
2017-08-16T06:43:59.952Z,4.33
2017-08-16T06:46:28.326Z,4.00
2017-08-16T06:48:56.699Z,5.00
2017-08-16T06:51:25.101Z,4.10
2017-08-16T06:53:52.742Z,4.33
2017-08-16T06:56:20.323Z,3.53
2017-08-16T06:58:48.363Z,3.67
2017-08-16T07:01:16.029Z,3.60
2017-08-16T07:03:43.639Z,4.37
2017-08-16T07:06:11.277Z,3.80
2017-08-16T07:08:38.910Z,4.40
2017-08-16T07:11:06.523Z,4.40
2017-08-16T07:13:34.909Z,4.07
2017-08-16T07:16:03.335Z,4.77
2017-08-16T07:18:30.926Z,4.67
2017-08-16T07:20:58.530Z,5.10
2017-08-16T07:23:27.166Z,4.63
2017-08-16T07:25:54.801Z,4.80
2017-08-16T07:28:23.548Z,4.60
2017-08-16T07:30:51.150Z,4.20
2017-08-16T07:33:19.497Z,5.50
2017-08-16T07:35:47.081Z,5.20
2017-08-16T07:38:15.455Z,5.00
2017-08-16T07:40:43.053Z,5.27
2017-08-16T07:43:10.631Z,5.10
2017-08-16T07:45:38.281Z,5.57
2017-08-16T07:48:05.939Z,5.33
2017-08-16T07:50:34.482Z,5.20
2017-08-16T07:53:02.119Z,5.10
2017-08-16T07:55:29.710Z,5.60
2017-08-16T07:57:57.302Z,6.43
2017-08-16T08:00:24.921Z,5.00
2017-08-16T08:02:52.529Z,7.27
2017-08-16T08:05:20.115Z,5.90
2017-08-16T08:07:47.720Z,5.50
2017-08-16T08:10:15.297Z,4.70
2017-08-16T08:12:42.960Z,5.60
2017-08-16T08:15:10.640Z,6.37
2017-08-16T08:17:38.284Z,5.80
2017-08-16T08:20:05.930Z,5.60
2017-08-16T08:22:33.600Z,5.50
2017-08-16T08:25:01.245Z,4.90
2017-08-16T08:27:30.461Z,5.00
2017-08-16T08:29:58.797Z,5.40
2017-08-16T08:32:26.860Z,4.60
2017-08-16T08:34:54.473Z,5.17
2017-08-16T08:37:22.828Z,5.53
2017-08-16T08:39:50.473Z,4.53
2017-08-16T08:42:18.074Z,5.80
2017-08-16T08:44:45.658Z,5.20
2017-08-16T08:47:14.051Z,4.53
2017-08-16T08:49:41.655Z,4.70
2017-08-16T08:52:09.257Z,4.50
2017-08-16T08:54:36.883Z,4.63
2017-08-16T08:57:04.459Z,5.07
2017-08-16T08:59:32.045Z,4.13
2017-08-16T09:02:00.435Z,4.93
2017-08-16T09:04:28.076Z,4.47
2017-08-16T09:06:56.020Z,4.20
2017-08-16T09:09:23.636Z,5.03
2017-08-16T09:11:51.222Z,4.40
2017-08-16T09:14:19.622Z,4.43
2017-08-16T09:16:47.202Z,4.70
2017-08-16T09:19:14.816Z,4.80
2017-08-16T09:21:42.437Z,5.47
2017-08-16T09:24:10.015Z,4.67
2017-08-16T09:26:37.609Z,4.63
2017-08-16T09:29:05.235Z,4.80
2017-08-16T09:31:32.873Z,5.00
2017-08-16T09:34:01.218Z,4.83
2017-08-16T09:36:29.237Z,5.30
2017-08-16T09:38:56.870Z,5.00
2017-08-16T09:41:24.477Z,4.67
2017-08-16T09:43:52.130Z,4.43
2017-08-16T09:46:19.734Z,4.60
2017-08-16T09:48:47.327Z,4.50
2017-08-16T09:51:15.731Z,4.93
2017-08-16T09:53:44.098Z,5.00
2017-08-16T09:56:11.699Z,4.70
2017-08-16T09:58:39.336Z,5.10
2017-08-16T10:01:07.708Z,4.57
2017-08-16T10:03:36.093Z,4.60
2017-08-16T10:06:03.736Z,4.83
2017-08-16T10:08:31.862Z,4.33
2017-08-16T10:11:00.390Z,4.20
2017-08-16T10:13:28.398Z,5.20
2017-08-16T10:15:56.024Z,4.53
2017-08-16T10:18:23.625Z,4.80
2017-08-16T10:20:51.244Z,5.13
2017-08-16T10:23:18.824Z,5.20
2017-08-16T10:25:46.749Z,5.07
2017-08-16T10:28:15.118Z,4.90
2017-08-16T10:30:42.727Z,5.17
2017-08-16T10:33:10.657Z,4.53
2017-08-16T10:35:38.234Z,4.47
2017-08-16T10:38:06.617Z,5.00
2017-08-16T10:40:34.205Z,5.13
2017-08-16T10:43:01.799Z,5.40
2017-08-16T10:45:29.435Z,5.10
2017-08-16T10:47:57.060Z,5.50
2017-08-16T10:50:24.653Z,4.63
2017-08-16T10:52:52.295Z,5.20
2017-08-16T10:55:19.936Z,5.23
2017-08-16T10:57:47.530Z,4.80
2017-08-16T11:00:15.138Z,4.90
2017-08-16T11:02:42.726Z,4.23
2017-08-16T11:05:13.837Z,4.90
2017-08-16T11:07:41.446Z,4.97
2017-08-16T11:10:09.312Z,5.10
2017-08-16T11:12:36.904Z,5.33
2017-08-16T11:15:04.538Z,4.53
2017-08-16T11:17:32.143Z,4.80
2017-08-16T11:19:59.738Z,5.20
2017-08-16T11:22:27.331Z,5.13
2017-08-16T11:24:54.908Z,4.67
2017-08-16T11:27:22.527Z,5.17
2017-08-16T11:29:50.157Z,5.30
2017-08-16T11:32:17.746Z,4.97
2017-08-16T11:34:46.135Z,4.70
2017-08-16T11:37:14.550Z,5.60
2017-08-16T11:39:42.114Z,4.60
2017-08-16T11:42:09.692Z,4.67
2017-08-16T11:44:37.348Z,4.20
2017-08-16T11:47:04.978Z,4.00
2017-08-16T11:49:32.599Z,4.87
2017-08-16T11:52:00.205Z,5.20
2017-08-16T11:54:28.590Z,5.53
2017-08-16T11:56:57.011Z,5.40
2017-08-16T11:59:24.634Z,5.03
2017-08-16T12:01:52.284Z,5.13
2017-08-16T12:04:19.894Z,4.90
2017-08-16T12:06:47.487Z,4.80
2017-08-16T12:09:15.131Z,4.87
2017-08-16T12:11:42.804Z,4.90
2017-08-16T12:14:10.417Z,4.60
2017-08-16T12:16:38.013Z,4.87
2017-08-16T12:19:06.429Z,5.67
2017-08-16T12:21:34.099Z,5.50
2017-08-16T12:24:01.773Z,4.83
2017-08-16T12:26:29.410Z,5.57
2017-08-16T12:28:59.246Z,4.50
2017-08-16T12:31:26.867Z,5.03
2017-08-16T12:33:54.887Z,4.83
2017-08-16T12:36:22.486Z,5.10
2017-08-16T12:38:50.076Z,5.40
2017-08-16T12:41:18.671Z,5.40
2017-08-16T12:43:46.263Z,5.27
2017-08-16T12:46:13.869Z,6.70
2017-08-16T12:48:41.470Z,5.37
2017-08-16T12:51:09.840Z,5.00
2017-08-16T12:53:38.184Z,7.53
2017-08-16T12:56:05.831Z,5.20
2017-08-16T12:58:33.437Z,5.73
2017-08-16T13:01:01.019Z,6.67
2017-08-16T13:03:30.355Z,5.73
2017-08-16T13:05:57.999Z,5.50
2017-08-16T13:08:26.358Z,5.73
2017-08-16T13:10:53.981Z,5.60
2017-08-16T13:13:22.161Z,5.70
2017-08-16T13:15:49.794Z,5.53
2017-08-16T13:18:17.407Z,5.53
2017-08-16T13:20:44.996Z,5.53
2017-08-16T13:23:12.618Z,5.30
2017-08-16T13:25:40.227Z,5.57
2017-08-16T13:28:07.861Z,5.50
2017-08-16T13:30:35.485Z,5.37
2017-08-16T13:33:03.893Z,5.90
2017-08-16T13:35:31.538Z,8.50
2017-08-16T13:37:59.967Z,5.43
2017-08-16T13:40:27.580Z,5.50
2017-08-16T13:42:56.565Z,13.50
2017-08-16T13:45:25.948Z,7.00
2017-08-16T13:47:53.534Z,4.57
2017-08-16T13:50:21.131Z,5.17
2017-08-16T13:52:48.772Z,6.00
2017-08-16T13:55:16.528Z,11.30
2017-08-16T13:57:44.142Z,5.27
2017-08-16T14:00:11.736Z,14.57
2017-08-16T14:02:39.346Z,5.50
2017-08-16T14:05:07.745Z,5.87
2017-08-16T14:07:35.344Z,5.90
2017-08-16T14:10:06.157Z,5.57
2017-08-16T14:12:33.782Z,5.40
2017-08-16T14:15:02.185Z,6.00
2017-08-16T14:17:29.794Z,5.77
2017-08-16T14:19:57.434Z,5.47
2017-08-16T14:22:25.060Z,8.17
2017-08-16T14:24:52.723Z,5.20
2017-08-16T14:27:20.366Z,5.73
2017-08-16T14:29:47.973Z,5.50
2017-08-16T14:32:16.360Z,5.70
2017-08-16T14:34:44.809Z,5.83
2017-08-16T14:37:12.402Z,5.37
2017-08-16T14:39:40.382Z,5.67
2017-08-16T14:42:08.842Z,5.63
2017-08-16T14:44:36.465Z,5.17
2017-08-16T14:47:04.081Z,5.30
2017-08-16T14:49:31.771Z,5.10
2017-08-16T14:52:00.555Z,5.30
2017-08-16T14:54:28.714Z,5.20
2017-08-16T14:56:56.638Z,5.20
2017-08-16T14:59:24.223Z,5.60
2017-08-16T15:01:51.828Z,5.60
2017-08-16T15:04:20.249Z,5.63
2017-08-16T15:06:47.839Z,5.80
2017-08-16T15:09:15.900Z,7.50
2017-08-16T15:11:43.526Z,5.60
2017-08-16T15:14:11.177Z,4.93
2017-08-16T15:16:38.833Z,5.03
2017-08-16T15:19:06.458Z,5.50
2017-08-16T15:21:34.647Z,5.30
2017-08-16T15:24:03.086Z,5.60
2017-08-16T15:26:30.896Z,5.30
2017-08-16T15:28:58.611Z,5.97
2017-08-16T15:31:26.259Z,6.10
2017-08-16T15:33:53.900Z,5.00
2017-08-16T15:36:21.619Z,5.30
2017-08-16T15:38:49.260Z,4.80
2017-08-16T15:41:16.934Z,5.67
2017-08-16T15:43:45.269Z,5.10
2017-08-16T15:46:13.426Z,5.43
2017-08-16T15:48:41.081Z,7.07
2017-08-16T15:51:08.795Z,5.63
2017-08-16T15:53:36.421Z,5.90
2017-08-16T15:56:04.024Z,5.60
2017-08-16T15:58:31.630Z,6.60
2017-08-16T16:00:59.239Z,7.30
2017-08-16T16:03:26.846Z,5.13
2017-08-16T16:05:54.455Z,6.00
2017-08-16T16:08:23.477Z,5.63
2017-08-16T16:10:51.245Z,4.97
2017-08-16T16:13:18.838Z,7.73
2017-08-16T16:15:46.456Z,5.87
2017-08-16T16:18:14.818Z,5.00
2017-08-16T16:20:42.464Z,5.73
2017-08-16T16:23:10.068Z,5.53
2017-08-16T16:25:38.492Z,6.27
2017-08-16T16:28:06.106Z,6.60
2017-08-16T16:30:33.693Z,5.80
2017-08-16T16:33:01.644Z,5.60
2017-08-16T16:35:30.031Z,6.37
2017-08-16T16:37:58.433Z,5.73
2017-08-16T16:40:27.070Z,5.93
2017-08-16T16:42:54.933Z,5.40
2017-08-16T16:45:22.651Z,6.23
2017-08-16T16:47:51.042Z,6.00
2017-08-16T16:50:19.409Z,5.97
2017-08-16T16:52:46.970Z,5.23
2017-08-16T16:55:14.566Z,6.43
2017-08-16T16:57:42.162Z,15.73
2017-08-16T17:00:09.818Z,9.10
2017-08-16T17:02:37.810Z,9.27
2017-08-16T17:05:05.400Z,6.63
2017-08-16T17:07:32.999Z,6.73
2017-08-16T17:10:00.639Z,10.57
2017-08-16T17:12:28.226Z,12.00
2017-08-16T17:14:56.962Z,7.33
2017-08-16T17:17:24.899Z,7.77
2017-08-16T17:19:52.604Z,6.83
2017-08-16T17:22:20.741Z,6.63
2017-08-16T17:24:49.222Z,6.77
2017-08-16T17:27:17.579Z,8.83
2017-08-16T17:29:45.566Z,12.60
2017-08-16T17:32:13.952Z,9.23
2017-08-16T17:34:42.329Z,6.30
2017-08-16T17:37:10.721Z,6.63
2017-08-16T17:39:38.362Z,5.83
2017-08-16T17:42:05.992Z,5.97
2017-08-16T17:44:33.628Z,5.90
2017-08-16T17:47:02.039Z,5.30
2017-08-16T17:49:29.627Z,5.57
2017-08-16T17:51:57.282Z,5.57
2017-08-16T17:54:25.858Z,5.70
2017-08-16T17:56:53.450Z,5.27
2017-08-16T17:59:21.097Z,6.00
2017-08-16T18:01:48.719Z,6.50
2017-08-16T18:04:17.156Z,5.87
2017-08-16T18:06:45.057Z,6.33
2017-08-16T18:09:12.678Z,6.20
2017-08-16T18:11:40.307Z,5.97
2017-08-16T18:14:08.668Z,5.87
2017-08-16T18:16:36.247Z,6.03
2017-08-16T18:19:03.906Z,5.77
2017-08-16T18:21:31.494Z,5.20
2017-08-16T18:23:59.213Z,5.47
2017-08-16T18:26:26.832Z,6.27
2017-08-16T18:28:54.461Z,5.30
2017-08-16T18:31:22.091Z,8.40
2017-08-16T18:33:49.697Z,6.07
2017-08-16T18:36:17.338Z,5.17
2017-08-16T18:38:45.100Z,10.07
2017-08-16T18:41:12.733Z,4.83
2017-08-16T18:43:41.089Z,6.17
2017-08-16T18:46:08.721Z,5.53
2017-08-16T18:48:36.316Z,6.07
2017-08-16T18:51:04.264Z,5.97
2017-08-16T18:53:31.915Z,9.77
2017-08-16T18:55:59.585Z,5.73
2017-08-16T18:58:27.187Z,6.83
2017-08-16T19:00:55.859Z,5.40
2017-08-16T19:03:23.465Z,9.27
2017-08-16T19:05:51.077Z,6.50
2017-08-16T19:08:20.190Z,9.90
2017-08-16T19:10:47.797Z,6.70
2017-08-16T19:13:16.315Z,6.37
2017-08-16T19:15:43.929Z,5.83
2017-08-16T19:18:11.895Z,7.30
2017-08-16T19:20:39.523Z,8.03
2017-08-16T19:23:07.184Z,4.83
2017-08-16T19:25:35.351Z,5.20
2017-08-16T19:28:02.951Z,5.33
2017-08-16T19:30:30.570Z,5.73
2017-08-16T19:32:58.999Z,6.23
2017-08-16T19:35:26.588Z,6.00
2017-08-16T19:37:54.224Z,6.17
2017-08-16T19:40:22.763Z,5.93
2017-08-16T19:42:51.130Z,5.17
2017-08-16T19:45:18.811Z,6.70
2017-08-16T19:47:47.250Z,5.47
2017-08-16T19:50:15.078Z,6.47
2017-08-16T19:52:43.481Z,7.57
2017-08-16T19:55:11.095Z,6.30
2017-08-16T19:57:39.474Z,6.07
2017-08-16T20:00:07.261Z,5.97
2017-08-16T20:02:35.519Z,7.53
2017-08-16T20:05:03.418Z,6.20
2017-08-16T20:07:31.815Z,6.93
2017-08-16T20:10:00.148Z,6.20
2017-08-16T20:12:27.810Z,6.77
2017-08-16T20:14:56.304Z,6.07
2017-08-16T20:17:24.020Z,6.20
2017-08-16T20:19:51.660Z,6.03
2017-08-16T20:22:20.048Z,6.20
2017-08-16T20:24:48.439Z,6.40
2017-08-16T20:27:16.034Z,6.33
2017-08-16T20:29:43.613Z,6.03
2017-08-16T20:32:11.224Z,6.57
2017-08-16T20:34:38.865Z,7.00
2017-08-16T20:37:06.473Z,8.33
2017-08-16T20:39:34.867Z,5.67
2017-08-16T20:42:02.544Z,7.37
2017-08-16T20:44:30.137Z,6.23
2017-08-16T20:46:57.793Z,6.73
2017-08-16T20:49:25.416Z,7.00
2017-08-16T20:51:53.801Z,6.33
2017-08-16T20:54:22.260Z,5.57
2017-08-16T20:56:49.876Z,7.73
2017-08-16T20:59:17.499Z,8.00
2017-08-16T21:01:45.094Z,6.07
2017-08-16T21:04:13.425Z,7.60
2017-08-16T21:06:41.035Z,5.80
2017-08-16T21:09:09.420Z,6.80
2017-08-16T21:11:37.020Z,7.60
2017-08-16T21:14:05.751Z,13.03
2017-08-16T21:16:33.337Z,7.30
2017-08-16T21:19:01.721Z,8.10
2017-08-16T21:21:29.332Z,7.63
2017-08-16T21:23:56.933Z,7.30
2017-08-16T21:26:24.554Z,7.50
2017-08-16T21:28:52.133Z,7.50
2017-08-16T21:31:19.988Z,7.03
2017-08-16T21:33:50.690Z,7.50
2017-08-16T21:36:18.288Z,7.53
2017-08-16T21:38:45.878Z,8.33
2017-08-16T21:41:13.716Z,6.20
2017-08-16T21:43:41.326Z,7.60
2017-08-16T21:46:08.929Z,8.03
2017-08-16T21:48:36.521Z,6.23
2017-08-16T21:51:04.136Z,7.67
2017-08-16T21:53:32.152Z,5.77
2017-08-16T21:55:59.880Z,7.50
2017-08-16T21:58:28.258Z,7.60
2017-08-16T22:00:55.875Z,7.07
2017-08-16T22:03:23.464Z,7.30
2017-08-16T22:05:51.061Z,8.20
2017-08-16T22:08:19.488Z,7.97
2017-08-16T22:10:47.074Z,7.83
2017-08-16T22:13:14.686Z,8.53
2017-08-16T22:15:42.304Z,8.17
2017-08-16T22:18:09.905Z,7.90
2017-08-16T22:20:38.268Z,7.90
2017-08-16T22:23:05.880Z,11.13
2017-08-16T22:25:33.482Z,11.57
2017-08-16T22:28:01.094Z,10.60
2017-08-16T22:30:29.465Z,8.67
2017-08-16T22:32:57.392Z,9.27
2017-08-16T22:35:24.995Z,8.23
2017-08-16T22:37:52.595Z,8.93
2017-08-16T22:40:20.206Z,12.13
2017-08-16T22:42:47.810Z,9.30
2017-08-16T22:45:16.192Z,11.00
2017-08-16T22:47:44.649Z,11.33
2017-08-16T22:50:12.223Z,9.53
2017-08-16T22:52:39.789Z,9.67
2017-08-16T22:55:07.409Z,10.83
2017-08-16T22:57:35.036Z,10.33
2017-08-16T23:00:02.615Z,10.50
2017-08-16T23:02:30.256Z,9.73
2017-08-16T23:04:58.302Z,9.80
2017-08-16T23:07:25.898Z,11.33
2017-08-16T23:09:53.917Z,13.20
2017-08-16T23:12:21.540Z,11.80
2017-08-16T23:14:49.951Z,13.20
2017-08-16T23:17:18.301Z,11.47
2017-08-16T23:19:46.302Z,14.20
2017-08-16T23:22:14.659Z,13.90
2017-08-16T23:24:42.262Z,13.53
2017-08-16T23:27:09.908Z,12.23
2017-08-16T23:29:38.320Z,15.00
2017-08-16T23:32:05.913Z,12.83
2017-08-16T23:34:33.556Z,11.37
2017-08-16T23:37:01.165Z,11.43
2017-08-16T23:39:29.127Z,11.90
2017-08-16T23:41:56.723Z,9.67
2017-08-16T23:47:46.950Z,11.47
2017-08-16T23:50:14.539Z,11.10
2017-08-16T23:52:42.066Z,10.37
2017-08-16T23:55:10.387Z,12.07
2017-08-16T23:57:37.930Z,10.80
